Terminal Aerodrome Forecast
Issued by NWS

Home | Current Version | Previous Version | Graphics & Text | Print | Product List | Glossary On
Versions: 1 2 3 4 5 6 7 8 9 10 11 12 13 14
000
FTUS43 KGRB 232320
TAFRHI
TAF
KRHI 232320Z 2400/2424 10005KT P6SM BKN200
     FM240400 10005KT P6SM BKN100
     FM241300 13008KT P6SM SCT035 OVC050=

USA.gov is the U.S. government's official web portal to all federal, state and local government web resources and services.